Gold Hill, Oregon
Current Conditions -  °F | °C
As of 2:53 PM on Monday 24 Nov 2014 (Local Time) from KMFR Reporting Station
Broken Clouds Broken Clouds  
Wind Chill: 50°   Ceiling: 11000
Heat Index: 50°   Visibility: 10mi
Dew Point: 38°   Wind: 3mph
Humidity: 63%   Direction: 10°N
Pressure: 30.4"   Gusts: NA
Location:  42.43°N, 123.05°W
Report Text: KMFR 242253Z 01003KT 10SM SCT055 BKN110 10/03 A3040 RMK AO2 SLP297 T01000033
Loading
Personal Weather Stations






























Interactive Weather Map New forecast layout! Learn more

10-Day Weather Forecast

Advertisements
Track Severe Weather on mobile